Time;durP1;ratioP1;P1;durP2;ratioP2;P2;SDS_P1;SDS_P2;PMS_P1;PMS_P2;Temp;Humidity;BMP_temperature;BMP_pressure;BME280_temperature;BME280_humidity;BME280_pressure;Samples;Min_cycle;Max_cycle;Signal;HPM_P1;HPM_P2
2023/02/06 00:01:49;;;;;;;28.60;20.20;;;2.40;1.00;;;;;;5094708;28;20605;-39
2023/02/06 00:04:15;;;;;;;28.33;21.10;;;2.40;1.00;;;;;;5096767;28;20542;-40
2023/02/06 00:06:41;;;;;;;28.80;20.37;;;2.40;1.00;;;;;;5096257;28;20410;-39
2023/02/06 00:09:07;;;;;;;30.43;22.03;;;2.40;1.00;;;;;;5096887;28;20430;-39
2023/02/06 00:11:33;;;;;;;30.97;22.00;;;2.40;1.00;;;;;;5097767;28;20453;-38
2023/02/06 00:13:59;;;;;;;28.30;20.40;;;2.40;1.00;;;;;;5098638;28;20187;-41
2023/02/06 00:16:26;;;;;;;31.57;22.17;;;2.40;1.00;;;;;;5097420;28;20425;-39
2023/02/06 00:18:54;;;;;;;21.20;11.60;;;2.30;1.00;;;;;;5097772;28;20187;-39
2023/02/06 00:21:23;;;;;;;30.10;18.67;;;3.30;1.00;;;;;;5096842;28;20462;-39
2023/02/06 00:23:49;;;;;;;43.67;27.00;;;4.90;1.00;;;;;;5098134;28;20490;-39
2023/02/06 00:26:16;;;;;;;35.80;26.03;;;5.10;1.00;;;;;;5098356;28;20406;-38
2023/02/06 00:28:41;;;;;;;30.73;22.80;;;4.70;1.00;;;;;;5098337;28;20426;-39
2023/02/06 00:31:08;;;;;;;37.20;25.07;;;4.30;1.00;;;;;;5098333;28;20461;-38
2023/02/06 00:33:35;;;;;;;36.80;24.27;;;3.90;1.00;;;;;;5097145;28;20434;-38
2023/02/06 00:36:00;;;;;;;37.10;24.70;;;3.60;1.00;;;;;;5097277;28;20425;-39
2023/02/06 00:38:27;;;;;;;41.30;26.20;;;3.40;1.00;;;;;;5097557;28;20423;-39
2023/02/06 00:40:53;;;;;;;36.03;25.20;;;3.30;1.00;;;;;;5097769;28;20923;-38
2023/02/06 00:43:18;;;;;;;38.80;24.87;;;3.10;1.00;;;;;;5098155;28;20426;-38
2023/02/06 00:45:44;;;;;;;42.23;26.13;;;3.00;1.00;;;;;;5098010;28;20196;-38
2023/02/06 00:48:10;;;;;;;43.17;26.80;;;2.80;1.00;;;;;;5098559;28;20184;-38
2023/02/06 00:50:36;;;;;;;38.63;23.70;;;2.80;1.00;;;;;;5097404;28;20463;-39
2023/02/06 00:53:01;;;;;;;39.23;23.10;;;2.70;1.00;;;;;;5098348;28;20440;-38
2023/02/06 00:55:27;;;;;;;40.30;24.90;;;2.70;1.00;;;;;;5098857;28;20425;-39
2023/02/06 00:57:53;;;;;;;34.70;23.30;;;2.60;1.00;;;;;;5098133;28;20230;-38
2023/02/06 01:00:18;;;;;;;37.20;23.60;;;2.60;1.00;;;;;;5097674;28;20274;-38
2023/02/06 01:02:44;;;;;;;40.80;23.67;;;2.60;1.00;;;;;;5097752;28;20218;-40
2023/02/06 01:05:10;;;;;;;39.43;24.23;;;2.60;1.00;;;;;;5097777;28;20180;-38
2023/02/06 01:07:39;;;;;;;34.20;21.90;;;2.60;1.00;;;;;;5097428;28;20179;-38
2023/02/06 01:10:06;;;;;;;38.60;24.40;;;2.60;1.00;;;;;;5097562;28;20600;-38
2023/02/06 01:12:35;;;;;;;34.27;22.97;;;2.60;1.00;;;;;;5097019;28;20426;-40
2023/02/06 01:15:05;;;;;;;36.50;24.23;;;2.60;1.00;;;;;;5096438;28;20422;-39
2023/02/06 01:17:32;;;;;;;37.27;23.87;;;2.60;1.00;;;;;;5097406;28;20414;-40
2023/02/06 01:19:58;;;;;;;34.63;23.17;;;2.60;1.00;;;;;;5096812;28;20905;-38
2023/02/06 01:22:23;;;;;;;35.43;23.17;;;2.60;1.00;;;;;;5096663;28;20466;-38
2023/02/06 01:24:49;;;;;;;38.90;24.17;;;2.60;1.00;;;;;;5094423;28;20572;-39
2023/02/06 01:27:15;;;;;;;38.23;24.13;;;2.70;1.00;;;;;;5095216;28;20239;-39
2023/02/06 01:29:40;;;;;;;38.40;23.43;;;2.60;1.00;;;;;;5096261;28;20180;-38
2023/02/06 01:32:06;;;;;;;38.13;24.00;;;2.60;1.00;;;;;;5096407;28;20236;-38
2023/02/06 01:34:32;;;;;;;40.83;25.27;;;2.70;1.00;;;;;;5096825;28;20430;-38
2023/02/06 01:36:57;;;;;;;42.00;27.30;;;2.60;99.90;;;;;;5097336;28;20461;-39
2023/02/06 01:39:23;;;;;;;41.50;26.33;;;2.60;99.90;;;;;;5096811;28;20179;-38
2023/02/06 01:41:49;;;;;;;40.47;25.27;;;2.60;99.90;;;;;;5097328;28;20211;-37
2023/02/06 01:44:15;;;;;;;42.00;27.27;;;2.50;99.90;;;;;;5096902;28;20168;-38
2023/02/06 01:46:43;;;;;;;42.70;25.40;;;2.50;99.90;;;;;;5096604;28;20406;-38
2023/02/06 01:49:15;;;;;;;38.80;25.73;;;2.50;1.00;;;;;;5096980;28;20180;-38
2023/02/06 01:51:41;;;;;;;40.13;23.70;;;2.50;1.00;;;;;;5095957;28;20505;-39
2023/02/06 01:54:07;;;;;;;38.10;24.63;;;2.40;99.90;;;;;;5096913;28;20585;-38
2023/02/06 01:56:38;;;;;;;39.40;26.23;;;2.40;1.00;;;;;;5096167;28;20418;-38
2023/02/06 01:59:04;;;;;;;40.73;26.47;;;2.40;1.00;;;;;;5096275;28;20719;-38
2023/02/06 02:01:30;;;;;;;41.80;25.70;;;2.40;1.00;;;;;;5095971;28;20477;-39
2023/02/06 02:04:11;;;;;;;38.40;22.93;;;2.40;1.00;;;;;;5096163;28;20234;-38
2023/02/06 02:06:36;;;;;;;41.53;26.13;;;2.40;1.00;;;;;;5096499;28;20418;-38
2023/02/06 02:09:03;;;;;;;42.33;25.47;;;2.30;1.00;;;;;;5096508;28;20693;-38
2023/02/06 02:11:35;;;;;;;43.97;27.10;;;2.30;1.00;;;;;;5096157;28;20456;-38
2023/02/06 02:14:02;;;;;;;45.60;26.30;;;2.30;1.00;;;;;;5095828;28;20506;-38
2023/02/06 02:16:39;;;;;;;46.90;25.57;;;2.30;1.00;;;;;;5098108;28;20419;-38
2023/02/06 02:19:29;;;;;;;45.43;26.80;;;2.20;1.00;;;;;;5098829;28;20421;-38
2023/02/06 02:21:59;;;;;;;42.60;26.50;;;2.20;1.00;;;;;;5098744;28;20466;-39
2023/02/06 02:24:31;;;;;;;44.40;25.90;;;2.20;1.00;;;;;;5098871;28;20462;-39
2023/02/06 02:27:12;;;;;;;48.57;26.43;;;2.10;1.00;;;;;;5100086;28;20579;-38
2023/02/06 02:29:59;;;;;;;47.67;27.40;;;2.10;1.00;;;;;;5100095;28;20422;-39
2023/02/06 02:32:37;;;;;;;42.80;25.40;;;2.20;1.00;;;;;;5099649;28;20665;-39
2023/02/06 02:35:26;;;;;;;40.67;24.20;;;2.30;1.00;;;;;;5099800;28;20529;-38
2023/02/06 02:38:24;;;;;;;43.73;26.10;;;2.30;1.00;;;;;;5098784;28;20422;-38
2023/02/06 02:41:14;;;;;;;47.60;25.70;;;2.20;1.00;;;;;;5064914;28;20793;-39
2023/02/06 02:43:43;;;;;;;53.23;26.30;;;2.20;1.00;;;;;;5098745;28;20422;-38
2023/02/06 02:46:33;;;;;;;46.30;28.77;;;2.20;1.00;;;;;;5099104;28;20417;-39
2023/02/06 02:49:12;;;;;;;43.17;26.50;;;2.10;1.00;;;;;;5099920;28;20436;-37
2023/02/06 02:51:38;;;;;;;48.27;26.07;;;2.10;1.00;;;;;;5098956;28;20406;-38
2023/02/06 02:54:04;;;;;;;49.87;28.10;;;2.10;1.00;;;;;;5098600;28;20505;-37
2023/02/06 02:56:32;;;;;;;48.50;27.00;;;2.10;1.00;;;;;;5099046;28;20446;-38
2023/02/06 02:59:00;;;;;;;50.80;27.70;;;2.10;1.00;;;;;;5098335;28;20426;-38
2023/02/06 03:01:32;;;;;;;44.57;26.50;;;2.10;1.00;;;;;;5097640;28;20970;-38
2023/02/06 03:04:02;;;;;;;46.93;27.20;;;2.10;1.00;;;;;;5098233;28;20456;-39
2023/02/06 03:06:28;;;;;;;44.17;27.40;;;2.20;1.00;;;;;;5098633;28;20479;-38
2023/02/06 03:09:06;;;;;;;44.40;26.80;;;2.10;1.00;;;;;;5097557;28;20427;-38
2023/02/06 03:11:32;;;;;;;44.90;27.83;;;2.10;1.00;;;;;;5097751;28;20261;-38
2023/02/06 03:14:01;;;;;;;51.70;30.30;;;2.10;1.00;;;;;;5097699;28;20850;-38
2023/02/06 03:16:46;;;;;;;51.77;27.27;;;2.10;1.00;;;;;;5097381;28;20512;-38
2023/02/06 03:19:23;;;;;;;44.33;26.07;;;2.10;1.00;;;;;;5097641;28;20421;-39
2023/02/06 03:21:49;;;;;;;47.57;27.27;;;2.10;1.00;;;;;;5098679;28;20461;-38
2023/02/06 03:24:24;;;;;;;43.33;25.40;;;2.00;1.00;;;;;;5097370;28;20557;-38
2023/02/06 03:26:52;;;;;;;45.30;28.27;;;2.00;1.00;;;;;;5096724;28;20421;-38
2023/02/06 03:29:18;;;;;;;50.30;25.60;;;2.00;1.00;;;;;;5098426;28;20457;-38
2023/02/06 03:31:48;;;;;;;38.67;24.13;;;2.00;1.00;;;;;;5098321;28;20481;-38
2023/02/06 03:34:25;;;;;;;45.33;26.27;;;2.00;1.00;;;;;;5097453;28;20495;-38
2023/02/06 03:36:51;;;;;;;42.07;25.67;;;1.90;1.00;;;;;;5096346;28;20421;-38
2023/02/06 03:39:16;;;;;;;46.23;29.60;;;1.90;1.00;;;;;;5098036;28;20517;-37
2023/02/06 03:41:42;;;;;;;45.50;25.17;;;1.90;1.00;;;;;;5098692;28;20204;-38
2023/02/06 03:44:17;;;;;;;51.10;28.70;;;1.90;1.00;;;;;;5097962;28;20526;-38
2023/02/06 03:46:43;;;;;;;45.20;24.97;;;1.90;1.00;;;;;;5098285;28;20466;-38
2023/02/06 03:49:11;;;;;;;43.57;26.77;;;1.90;1.00;;;;;;5096622;28;20433;-39
2023/02/06 03:51:54;;;;;;;47.27;27.00;;;1.90;1.00;;;;;;5098175;28;20435;-38
2023/02/06 03:54:22;;;;;;;48.30;27.57;;;1.90;1.00;;;;;;5104896;28;20768;-39
2023/02/06 03:57:00;;;;;;;48.40;27.67;;;1.90;1.00;;;;;;5117660;28;20441;-37
2023/02/06 03:59:26;;;;;;;46.73;26.60;;;2.00;1.00;;;;;;5117889;28;20811;-39
2023/02/06 04:01:55;;;;;;;53.30;30.47;;;2.00;1.00;;;;;;5118393;28;20484;-37
2023/02/06 04:04:27;;;;;;;77.17;41.80;;;2.00;1.00;;;;;;5116875;28;20173;-38
2023/02/06 04:06:59;;;;;;;57.23;30.33;;;2.00;1.00;;;;;;5118514;28;20424;-38
2023/02/06 04:09:25;;;;;;;47.20;29.37;;;2.00;1.00;;;;;;5118220;28;20707;-38
2023/02/06 04:11:50;;;;;;;50.60;28.33;;;2.00;1.00;;;;;;5117634;28;20414;-37
2023/02/06 04:14:16;;;;;;;48.77;27.03;;;2.00;1.00;;;;;;5117649;28;20175;-38
2023/02/06 04:16:42;;;;;;;46.07;26.50;;;1.90;1.00;;;;;;5117750;28;20207;-38
2023/02/06 04:19:08;;;;;;;46.73;27.50;;;1.90;1.00;;;;;;5118374;28;20191;-38
2023/02/06 04:21:33;;;;;;;50.87;25.50;;;1.90;1.00;;;;;;5117302;28;20546;-37
2023/02/06 04:23:59;;;;;;;49.30;26.03;;;1.90;1.00;;;;;;5117550;28;20314;-38
2023/02/06 04:26:24;;;;;;;46.37;25.30;;;1.80;1.00;;;;;;5117547;28;20514;-38
2023/02/06 04:28:50;;;;;;;41.10;24.50;;;1.80;1.00;;;;;;5117687;28;20183;-37
2023/02/06 04:31:16;;;;;;;43.47;24.20;;;1.80;1.00;;;;;;5117536;28;20168;-37
2023/02/06 04:33:42;;;;;;;48.70;27.57;;;1.80;1.00;;;;;;5117684;28;20516;-38
2023/02/06 04:36:07;;;;;;;43.13;25.57;;;1.80;1.00;;;;;;5117529;28;20195;-38
2023/02/06 04:38:33;;;;;;;49.00;27.60;;;1.90;1.00;;;;;;5117542;28;20175;-38
2023/02/06 04:41:03;;;;;;;46.50;26.80;;;1.90;1.00;;;;;;5118190;28;20175;-38
2023/02/06 04:43:29;;;;;;;50.80;27.90;;;1.90;1.00;;;;;;5117437;28;20179;-38
2023/02/06 04:45:54;;;;;;;52.37;30.60;;;1.90;1.00;;;;;;5115346;28;20410;-38
2023/02/06 04:48:20;;;;;;;53.03;33.70;;;1.90;1.00;;;;;;5116708;28;20210;-37
2023/02/06 04:50:45;;;;;;;45.60;26.70;;;1.90;1.00;;;;;;5116303;28;20176;-38
2023/02/06 04:53:11;;;;;;;46.27;27.00;;;1.90;1.00;;;;;;5117214;28;20279;-37
2023/02/06 04:55:37;;;;;;;43.60;26.00;;;1.80;1.00;;;;;;5116272;28;20236;-37
2023/02/06 04:58:02;;;;;;;48.20;26.50;;;1.80;1.00;;;;;;5115830;28;20278;-37
2023/02/06 05:00:28;;;;;;;50.30;28.27;;;1.80;1.00;;;;;;5115065;28;20229;-38
2023/02/06 05:02:54;;;;;;;49.53;27.40;;;1.90;1.00;;;;;;5116002;28;20272;-37
2023/02/06 05:05:19;;;;;;;50.57;28.17;;;1.90;1.00;;;;;;5114620;28;20184;-37
2023/02/06 05:07:45;;;;;;;53.50;28.17;;;2.00;1.00;;;;;;5116130;28;20189;-37
2023/02/06 05:10:10;;;;;;;52.03;29.30;;;2.00;1.00;;;;;;5115492;28;20179;-38
2023/02/06 05:12:36;;;;;;;72.57;30.60;;;2.00;1.00;;;;;;5116845;28;20179;-39
2023/02/06 05:15:02;;;;;;;48.17;29.07;;;2.00;1.00;;;;;;5115861;28;20203;-38
2023/02/06 05:17:28;;;;;;;47.50;28.90;;;2.00;1.00;;;;;;5113267;28;20184;-38
2023/02/06 05:19:53;;;;;;;55.03;30.40;;;1.90;1.00;;;;;;5113902;28;20179;-38
2023/02/06 05:22:19;;;;;;;63.60;34.33;;;1.90;1.00;;;;;;5113269;28;20206;-38
2023/02/06 05:24:44;;;;;;;53.83;29.40;;;1.90;1.00;;;;;;5113022;28;20272;-39
2023/02/06 05:27:10;;;;;;;52.77;33.10;;;1.90;1.00;;;;;;5112416;28;20172;-39
2023/02/06 05:29:36;;;;;;;56.37;29.67;;;1.90;1.00;;;;;;5112542;28;20344;-38
2023/02/06 05:32:01;;;;;;;54.17;30.07;;;1.80;1.00;;;;;;5112744;28;20200;-38
2023/02/06 05:34:27;;;;;;;54.73;30.50;;;1.80;1.00;;;;;;5114564;28;20179;-38
2023/02/06 05:36:53;;;;;;;51.30;30.80;;;1.80;1.00;;;;;;5113704;28;20278;-39
2023/02/06 05:39:18;;;;;;;52.83;31.77;;;1.80;1.00;;;;;;5113481;28;20462;-38
2023/02/06 05:41:44;;;;;;;48.93;31.70;;;1.80;1.00;;;;;;5113716;28;20204;-37
2023/02/06 05:44:09;;;;;;;55.10;30.50;;;1.80;1.00;;;;;;5113576;28;20536;-38
2023/02/06 05:46:36;;;;;;;51.67;32.80;;;1.80;1.00;;;;;;5113407;28;20282;-39
2023/02/06 05:49:02;;;;;;;52.93;30.20;;;1.70;1.00;;;;;;5112405;28;20176;-39
2023/02/06 05:51:27;;;;;;;53.20;31.10;;;1.70;1.00;;;;;;5117114;28;20894;-38
2023/02/06 05:53:53;;;;;;;53.27;32.70;;;1.80;1.00;;;;;;5117748;28;20216;-38
2023/02/06 05:56:19;;;;;;;49.13;29.43;;;1.80;1.00;;;;;;5116021;28;20176;-38
2023/02/06 05:58:44;;;;;;;53.67;33.10;;;1.80;1.00;;;;;;5117365;28;20553;-38
2023/02/06 06:01:11;;;;;;;51.13;31.70;;;1.80;1.00;;;;;;5114023;28;20479;-38
2023/02/06 06:03:37;;;;;;;62.53;39.10;;;1.80;1.00;;;;;;5114555;28;20292;-39
2023/02/06 06:06:04;;;;;;;60.17;38.10;;;1.80;1.00;;;;;;5115464;28;20444;-38
2023/02/06 06:11:57;;;;;;;38.23;24.93;;;1.80;1.00;;;;;;5116044;28;20842;-38
2023/02/06 06:14:23;;;;;;;36.80;25.20;;;1.80;1.00;;;;;;5115962;28;20436;-38
2023/02/06 06:16:49;;;;;;;40.00;26.10;;;1.90;1.00;;;;;;5115399;28;20437;-39
2023/02/06 06:19:15;;;;;;;40.57;25.50;;;1.90;1.00;;;;;;5114305;28;20245;-38
2023/02/06 06:21:40;;;;;;;35.43;23.80;;;1.90;1.00;;;;;;5113988;28;20373;-39
2023/02/06 06:24:06;;;;;;;33.10;24.80;;;1.90;1.00;;;;;;5113366;28;20216;-38
2023/02/06 06:26:33;;;;;;;36.33;25.73;;;1.90;1.00;;;;;;5112149;28;20215;-38
2023/02/06 06:28:58;;;;;;;47.23;30.37;;;1.90;1.00;;;;;;5095248;28;20255;-37
2023/02/06 06:31:24;;;;;;;42.23;28.90;;;2.00;1.00;;;;;;5107340;28;20589;-37
2023/02/06 06:33:50;;;;;;;40.10;27.67;;;2.00;99.90;;;;;;5114139;28;20195;-38
2023/02/06 06:36:16;;;;;;;40.37;28.40;;;2.00;99.90;;;;;;5115367;28;20184;-38
2023/02/06 06:38:41;;;;;;;43.27;28.70;;;2.00;99.90;;;;;;5115450;28;20180;-38
2023/02/06 06:41:07;;;;;;;41.13;27.27;;;2.10;99.90;;;;;;5113825;28;20472;-38
2023/02/06 06:43:33;;;;;;;39.53;27.53;;;2.10;99.90;;;;;;5110542;28;20183;-37
2023/02/06 06:46:03;;;;;;;40.47;28.60;;;2.10;99.90;;;;;;5113055;28;20180;-37
2023/02/06 06:48:29;;;;;;;46.27;29.33;;;2.10;99.90;;;;;;5113634;28;20433;-37
2023/02/06 06:50:54;;;;;;;43.13;28.67;;;2.10;99.90;;;;;;5115019;28;20467;-36
2023/02/06 06:53:20;;;;;;;43.00;28.87;;;2.10;99.90;;;;;;5113472;28;20443;-39
2023/02/06 06:55:46;;;;;;;44.13;28.60;;;2.10;99.90;;;;;;5116041;28;20178;-39
2023/02/06 06:58:11;;;;;;;46.30;29.73;;;2.00;99.90;;;;;;5112213;28;20444;-38
2023/02/06 07:00:38;;;;;;;40.57;28.50;;;2.00;99.90;;;;;;5116182;28;20237;-37
2023/02/06 07:03:04;;;;;;;38.40;27.67;;;2.00;99.90;;;;;;5115391;28;20218;-38
2023/02/06 07:05:30;;;;;;;37.70;26.83;;;1.90;99.90;;;;;;5117043;28;20425;-38
2023/02/06 07:07:55;;;;;;;38.53;27.17;;;1.90;99.90;;;;;;5114668;28;20488;-40
2023/02/06 07:10:21;;;;;;;37.07;28.30;;;1.90;99.90;;;;;;5116154;28;20172;-40
2023/02/06 07:12:47;;;;;;;40.97;28.13;;;1.80;99.90;;;;;;5112696;28;20180;-38
2023/02/06 07:15:13;;;;;;;40.03;26.77;;;1.80;99.90;;;;;;5113931;28;20441;-38
2023/02/06 07:17:39;;;;;;;37.73;27.77;;;1.80;99.90;;;;;;5115304;28;20186;-37
2023/02/06 07:20:05;;;;;;;35.83;26.00;;;1.70;99.90;;;;;;5114823;28;20422;-37
2023/02/06 07:22:30;;;;;;;35.57;26.73;;;1.80;99.90;;;;;;5113784;28;20259;-38
2023/02/06 07:24:56;;;;;;;38.23;27.17;;;1.70;99.90;;;;;;5112290;28;20567;-37
2023/02/06 07:27:22;;;;;;;34.87;26.57;;;1.70;99.90;;;;;;5111238;28;20186;-38
2023/02/06 07:29:47;;;;;;;36.43;26.60;;;1.70;99.90;;;;;;5110677;28;20490;-38
2023/02/06 07:32:14;;;;;;;32.43;24.30;;;1.70;99.90;;;;;;5099428;28;20189;-39
2023/02/06 07:34:41;;;;;;;31.33;21.37;;;1.70;99.90;;;;;;5073620;28;20169;-38
2023/02/06 07:37:08;;;;;;;34.17;24.17;;;1.60;99.90;;;;;;5074291;28;20450;-38
2023/02/06 07:39:34;;;;;;;30.93;23.60;;;1.60;99.90;;;;;;5073104;28;20737;-40
2023/02/06 07:41:59;;;;;;;31.60;24.00;;;1.60;99.90;;;;;;5074655;28;20466;-38
2023/02/06 07:44:25;;;;;;;33.07;25.27;;;1.60;99.90;;;;;;5074707;28;20265;-39
2023/02/06 07:46:51;;;;;;;35.63;25.53;;;1.70;99.90;;;;;;5075639;28;20173;-38
2023/02/06 07:49:17;;;;;;;34.10;25.90;;;1.70;99.90;;;;;;5074365;28;20459;-38
2023/02/06 07:51:44;;;;;;;30.83;23.60;;;1.70;99.90;;;;;;5072196;28;20416;-36
2023/02/06 07:54:11;;;;;;;28.47;23.23;;;1.70;99.90;;;;;;5072597;28;20601;-37
2023/02/06 07:56:36;;;;;;;31.07;24.60;;;1.70;99.90;;;;;;5073295;28;20420;-37
2023/02/06 07:59:02;;;;;;;34.60;25.03;;;1.70;99.90;;;;;;5073408;28;20446;-38
2023/02/06 08:01:28;;;;;;;27.93;20.97;;;1.70;99.90;;;;;;5072944;28;20205;-38
2023/02/06 08:03:54;;;;;;;27.47;20.40;;;1.80;94.90;;;;;;5071525;28;20592;-38
2023/02/06 08:06:21;;;;;;;21.37;19.07;;;1.80;56.20;;;;;;5071155;28;20225;-39
2023/02/06 08:08:47;;;;;;;28.30;20.47;;;1.80;61.50;;;;;;5073740;28;20602;-38
2023/02/06 08:11:15;;;;;;;27.83;19.90;;;1.80;82.10;;;;;;5073220;28;20535;-38
2023/02/06 08:13:42;;;;;;;24.83;20.87;;;1.90;52.40;;;;;;5072619;28;20423;-37
2023/02/06 08:16:11;;;;;;;26.40;20.90;;;2.00;92.40;;;;;;5072991;28;20499;-38
2023/02/06 08:18:36;;;;;;;24.30;19.10;;;2.10;78.30;;;;;;5073572;28;20423;-38
2023/02/06 08:21:09;;;;;;;28.40;20.33;;;2.20;63.90;;;;;;5073262;28;20523;-38
2023/02/06 08:23:35;;;;;;;26.93;21.30;;;2.20;43.20;;;;;;5072649;28;20192;-38
2023/02/06 08:26:12;;;;;;;23.80;18.20;;;2.30;1.00;;;;;;5073823;28;20407;-38
2023/02/06 08:28:38;;;;;;;42.03;24.87;;;2.40;1.00;;;;;;5071616;28;20169;-38
2023/02/06 08:31:09;;;;;;;32.20;22.70;;;2.40;99.90;;;;;;5073006;28;20412;-39
2023/02/06 08:33:35;;;;;;;24.77;19.23;;;2.40;99.90;;;;;;5074114;28;20411;-38
2023/02/06 08:36:02;;;;;;;31.23;22.70;;;2.50;1.00;;;;;;5075259;28;20423;-37
2023/02/06 08:38:28;;;;;;;24.53;17.57;;;2.50;1.00;;;;;;5076141;28;20451;-38
2023/02/06 08:40:53;;;;;;;25.30;19.03;;;2.60;99.90;;;;;;5073819;28;20451;-38
2023/02/06 08:43:19;;;;;;;21.83;18.47;;;2.60;99.90;;;;;;5074103;28;20169;-38
2023/02/06 08:45:49;;;;;;;23.13;19.30;;;2.60;99.90;;;;;;5072814;28;20172;-38
2023/02/06 08:48:15;;;;;;;22.50;18.70;;;2.70;99.90;;;;;;5073457;28;20268;-37
2023/02/06 08:50:40;;;;;;;22.57;19.30;;;2.70;99.90;;;;;;5072557;28;20499;-38
2023/02/06 08:53:06;;;;;;;27.00;18.43;;;2.60;1.00;;;;;;5071118;28;20426;-38
2023/02/06 08:55:31;;;;;;;22.40;19.17;;;2.60;81.20;;;;;;5072950;28;20181;-38
2023/02/06 08:57:57;;;;;;;24.23;19.13;;;2.60;99.90;;;;;;5073034;28;20180;-38
2023/02/06 09:00:23;;;;;;;26.97;19.40;;;2.70;99.90;;;;;;5073500;28;20271;-38
2023/02/06 09:02:50;;;;;;;20.53;18.20;;;2.70;99.90;;;;;;5071596;28;20492;-38
2023/02/06 09:05:16;;;;;;;26.43;19.77;;;2.70;99.90;;;;;;5073108;28;20192;-39
2023/02/06 09:07:41;;;;;;;22.87;17.30;;;2.80;99.90;;;;;;5071527;28;20404;-39
2023/02/06 09:10:07;;;;;;;24.40;17.13;;;2.90;99.90;;;;;;5072598;28;20247;-38
2023/02/06 09:12:33;;;;;;;23.00;17.23;;;3.00;1.00;;;;;;5073740;28;20188;-38
2023/02/06 09:14:59;;;;;;;21.43;18.27;;;3.00;1.00;;;;;;5071542;28;20485;-38
2023/02/06 09:17:26;;;;;;;23.20;18.13;;;3.00;75.30;;;;;;5070849;28;20208;-38
2023/02/06 09:19:51;;;;;;;17.03;7.83;;;3.00;52.60;;;;;;5074311;28;20427;-39
2023/02/06 09:22:17;;;;;;;31.30;24.23;;;4.20;1.00;;;;;;5081173;28;20467;-39
2023/02/06 09:24:42;;;;;;;27.10;22.33;;;5.20;1.00;;;;;;5092776;28;20212;-38
2023/02/06 09:27:08;;;;;;;26.27;20.57;;;5.30;1.00;;;;;;5096443;28;20176;-38
2023/02/06 09:29:34;;;;;;;22.67;18.97;;;5.10;1.00;;;;;;5098662;28;20276;-39
2023/02/06 09:32:00;;;;;;;25.93;19.40;;;4.90;1.00;;;;;;5099227;28;20182;-36
2023/02/06 09:34:26;;;;;;;20.20;17.17;;;4.70;1.00;;;;;;5097669;28;20510;-37
2023/02/06 09:36:55;;;;;;;19.97;16.40;;;4.40;1.00;;;;;;5096455;28;20548;-37
2023/02/06 09:39:21;;;;;;;22.00;15.73;;;4.20;99.90;;;;;;5118360;28;20425;-37
2023/02/06 09:41:51;;;;;;;17.07;13.80;;;4.00;1.00;;;;;;5116652;28;20461;-37
2023/02/06 09:44:30;;;;;;;17.30;13.80;;;3.90;99.90;;;;;;5114587;28;20430;-38
2023/02/06 09:47:08;;;;;;;20.80;14.13;;;3.90;1.00;;;;;;5116417;28;20542;-38
2023/02/06 09:49:36;;;;;;;18.90;14.00;;;3.80;99.90;;;;;;5115611;28;20648;-38
2023/02/06 09:52:14;;;;;;;15.80;13.63;;;3.80;1.00;;;;;;5117726;28;20476;-38
2023/02/06 09:55:17;;;;;;;24.30;15.73;;;3.80;1.00;;;;;;5118833;28;20683;-38
2023/02/06 09:58:06;;;;;;;9.60;8.43;;;3.80;42.60;;;;;;5116994;28;20417;-37
2023/02/06 10:00:52;;;;;;;10.10;8.10;;;3.70;99.90;;;;;;5117503;28;20417;-38
2023/02/06 10:03:23;;;;;;;17.67;11.07;;;3.60;1.00;;;;;;5119182;28;20762;-37
2023/02/06 10:05:59;;;;;;;14.33;12.30;;;3.50;91.50;;;;;;5118868;28;20420;-38
2023/02/06 10:08:29;;;;;;;16.60;12.60;;;3.50;99.90;;;;;;5118434;28;20456;-38
2023/02/06 10:10:57;;;;;;;13.40;11.87;;;3.50;99.90;;;;;;5118058;28;20420;-36
2023/02/06 10:13:34;;;;;;;14.67;12.20;;;3.50;1.00;;;;;;5100230;28;20434;-38
2023/02/06 10:16:23;;;;;;;14.10;12.57;;;3.50;1.00;;;;;;5119616;28;20410;-39
2023/02/06 10:18:51;;;;;;;14.50;12.33;;;3.50;1.00;;;;;;5119141;28;20421;-37
2023/02/06 10:21:40;;;;;;;12.63;11.07;;;3.50;1.00;;;;;;5121109;28;20541;-37
2023/02/06 10:24:54;;;;;;;14.37;10.30;;;3.50;1.00;;;;;;5121762;28;20464;-38
2023/02/06 10:27:20;;;;;;;12.73;10.37;;;3.60;1.00;;;;;;5110910;28;20447;-39
2023/02/06 10:29:47;;;;;;;13.20;10.07;;;3.70;99.90;;;;;;5124250;28;20425;-39
2023/02/06 10:32:25;;;;;;;8.83;7.93;;;3.70;1.00;;;;;;5125137;28;20429;-38
2023/02/06 10:34:51;;;;;;;9.53;8.53;;;3.70;99.90;;;;;;5123935;28;20554;-38
2023/02/06 10:37:47;;;;;;;9.43;8.13;;;3.60;99.90;;;;;;5122863;28;20449;-38
2023/02/06 10:40:27;;;;;;;18.37;10.73;;;3.70;99.90;;;;;;5123701;28;20180;-37
2023/02/06 10:43:01;;;;;;;10.13;7.43;;;3.70;99.90;;;;;;5121011;28;20465;-37
2023/02/06 10:45:45;;;;;;;40.87;20.47;;;3.60;46.20;;;;;;5115158;28;20455;-37
2023/02/06 10:48:31;;;;;;;40.40;23.80;;;3.50;1.00;;;;;;5115016;28;20834;-38
2023/02/06 10:51:06;;;;;;;15.03;13.33;;;3.50;24.60;;;;;;5112738;28;20416;-37
2023/02/06 10:53:38;;;;;;;11.23;9.67;;;3.40;1.00;;;;;;5113874;28;20460;-37
2023/02/06 10:56:16;;;;;;;11.83;8.10;;;3.40;1.00;;;;;;5113244;28;20752;-37
2023/02/06 10:58:53;;;;;;;10.60;6.77;;;3.40;99.90;;;;;;5112594;28;20833;-38
2023/02/06 11:01:19;;;;;;;8.07;6.77;;;3.30;99.90;;;;;;5116170;28;20537;-38
2023/02/06 11:04:23;;;;;;;8.50;6.90;;;3.20;99.90;;;;;;5112187;28;20520;-37
2023/02/06 11:06:54;;;;;;;10.00;7.03;;;3.10;1.00;;;;;;5084213;28;20421;-37
2023/02/06 11:09:20;;;;;;;9.40;7.17;;;3.10;41.50;;;;;;5119522;28;20424;-38
2023/02/06 11:11:50;;;;;;;8.03;6.63;;;3.10;99.90;;;;;;5118279;28;20537;-36
2023/02/06 11:14:16;;;;;;;7.07;6.23;;;3.00;1.00;;;;;;5118851;28;20267;-38
2023/02/06 11:16:43;;;;;;;7.80;6.37;;;3.00;1.00;;;;;;5118841;28;20413;-38
2023/02/06 11:19:31;;;;;;;7.97;7.13;;;3.00;99.90;;;;;;5119838;28;20180;-38
2023/02/06 11:22:03;;;;;;;9.63;7.43;;;3.00;99.90;;;;;;5118550;28;20559;-37
2023/02/06 11:24:29;;;;;;;11.07;8.80;;;3.00;99.90;;;;;;5116921;28;20600;-37
2023/02/06 11:27:00;;;;;;;7.93;6.70;;;3.10;99.90;;;;;;5115193;28;20421;-37
2023/02/06 11:29:36;;;;;;;9.37;6.83;;;3.00;42.90;;;;;;5116677;28;20519;-38
2023/02/06 11:32:06;;;;;;;8.20;6.47;;;3.00;1.00;;;;;;5116173;28;20527;-37
2023/02/06 11:34:51;;;;;;;6.77;6.10;;;3.00;1.00;;;;;;5113884;28;20429;-38
2023/02/06 11:37:36;;;;;;;6.97;6.10;;;3.10;1.00;;;;;;5116471;28;20417;-38
2023/02/06 11:40:17;;;;;;;9.70;6.93;;;3.10;1.00;;;;;;5114974;27;20452;-38
2023/02/06 11:42:51;;;;;;;8.37;6.33;;;3.30;1.00;;;;;;5115699;28;20545;-38
2023/02/06 11:45:26;;;;;;;11.57;6.13;;;3.40;99.90;;;;;;5115509;28;20414;-37
2023/02/06 11:47:52;;;;;;;8.73;6.70;;;3.50;99.90;;;;;;5114476;28;20561;-39
2023/02/06 11:50:27;;;;;;;8.27;6.70;;;3.60;99.90;;;;;;5115372;28;20516;-40
2023/02/06 11:53:17;;;;;;;9.07;7.40;;;3.60;1.00;;;;;;5112611;28;20179;-39
2023/02/06 11:55:44;;;;;;;8.70;6.20;;;3.70;1.00;;;;;;5113257;28;20508;-39
2023/02/06 11:58:13;;;;;;;9.87;6.97;;;3.80;1.00;;;;;;5114963;28;20528;-37
2023/02/06 12:00:41;;;;;;;9.63;8.30;;;3.80;1.00;;;;;;5114835;28;20433;-37
2023/02/06 12:03:26;;;;;;;9.07;8.03;;;3.70;1.00;;;;;;5114284;28;20468;-37
2023/02/06 12:05:52;;;;;;;11.20;7.60;;;3.70;99.90;;;;;;5113522;28;20413;-38
2023/02/06 12:08:20;;;;;;;11.53;8.10;;;3.70;99.90;;;;;;5114775;28;20823;-38
2023/02/06 12:11:02;;;;;;;8.60;6.97;;;3.70;99.90;;;;;;5114648;28;20417;-38
2023/02/06 12:13:32;;;;;;;7.43;6.30;;;3.70;1.00;;;;;;5112109;28;20445;-37
2023/02/06 12:16:00;;;;;;;9.53;6.23;;;3.70;1.00;;;;;;5112791;28;20448;-37
2023/02/06 12:18:30;;;;;;;8.20;6.33;;;3.60;1.00;;;;;;5111847;28;20871;-46
2023/02/06 12:21:07;;;;;;;7.57;6.30;;;3.60;1.00;;;;;;5112731;28;20763;-38
2023/02/06 12:23:32;;;;;;;11.23;9.57;;;5.30;1.00;;;;;;5110823;28;20497;-38
2023/02/06 12:26:02;;;;;;;8.13;7.33;;;6.50;1.00;;;;;;5112222;28;20862;-40
2023/02/06 12:28:49;;;;;;;7.20;5.50;;;7.40;1.00;;;;;;5111423;28;20506;-41
2023/02/06 12:31:26;;;;;;;6.50;5.70;;;8.20;99.90;;;;;;5110127;28;20803;-39
2023/02/06 12:33:54;;;;;;;6.10;5.50;;;9.00;1.00;;;;;;5110102;28;20516;-40
2023/02/06 12:36:24;;;;;;;5.90;5.30;;;8.90;99.90;;;;;;5108696;28;20416;-39
2023/02/06 12:39:03;;;;;;;6.83;5.80;;;8.30;1.00;;;;;;5110991;28;20501;-38
2023/02/06 12:42:13;;;;;;;8.27;7.50;;;7.60;1.00;;;;;;5093153;28;20551;-40
2023/02/06 12:45:02;;;;;;;8.20;7.40;;;6.90;1.00;;;;;;5081740;28;20429;-38
2023/02/06 12:47:40;;;;;;;7.77;6.40;;;6.30;1.00;;;;;;5093293;28;20415;-38
2023/02/06 12:50:24;;;;;;;7.27;6.20;;;5.70;21.00;;;;;;5092583;28;20419;-38
2023/02/06 12:52:52;;;;;;;8.70;7.77;;;5.40;57.00;;;;;;5092284;28;20428;-38
2023/02/06 12:55:28;;;;;;;8.67;7.77;;;4.80;99.90;;;;;;5091037;28;20441;-38
2023/02/06 12:57:55;;;;;;;10.03;8.97;;;4.50;99.90;;;;;;5087843;28;20747;-37
2023/02/06 13:00:48;;;;;;;8.77;6.43;;;4.20;1.00;;;;;;5084638;28;20419;-39
2023/02/06 13:03:14;;;;;;;10.43;7.33;;;4.00;1.00;;;;;;5084217;28;20940;-37
2023/02/06 13:05:46;;;;;;;9.53;7.97;;;3.90;99.90;;;;;;5086947;28;20480;-37